AXB1027 VABB-VOML
Flight info
| Callsign | AXB1027 |
|---|---|
| Flight time | 1h 35m |
| Altitude | 37000 |
| Route | VEVAK2A MABTA Q13 IKATI |
| Aircraft | A20N/M-SDE2E3FGHIRWXY/LB1 |
Departure
| Time | 2026-05-04 17:04 |
|---|---|
| Airport | Chhatrapati Shivaji Maharaj International Airport (VABB) |
Arrival
| Time | 2026-05-04 18:40 |
|---|---|
| Airport | Mangaluru International Airport (VOML) |
| Time | Latitude | Longitude | Altitude | Speed | Heading |
|---|---|---|---|---|---|
| 2026-05-04 16:16 | 19.09328 | 72.87094 | 49 ft | 0 kts | 32° |
| 2026-05-04 16:18 | 19.09327 | 72.87094 | 49 ft | 0 kts | 32° |
| 2026-05-04 16:39 | 19.09261 | 72.87046 | 46 ft | 5 kts | 39° |
| 2026-05-04 16:39 | 19.09239 | 72.87018 | 45 ft | 2 kts | 97° |
| 2026-05-04 16:40 | 19.09250 | 72.86998 | 49 ft | 2 kts | 135° |
| 2026-05-04 16:40 | 19.09257 | 72.86991 | 46 ft | 0 kts | 137° |
| 2026-05-04 16:44 | 19.09233 | 72.87058 | 48 ft | 3 kts | 92° |
| 2026-05-04 16:45 | 19.09232 | 72.87072 | 49 ft | 0 kts | 103° |
| 2026-05-04 16:46 | 19.09144 | 72.87104 | 49 ft | 7 kts | 120° |
| 2026-05-04 16:46 | 19.09136 | 72.87154 | 49 ft | 0 kts | 92° |
| 2026-05-04 16:47 | 19.09136 | 72.87171 | 49 ft | 4 kts | 91° |
| 2026-05-04 16:47 | 19.09092 | 72.87261 | 49 ft | 10 kts | 168° |
| 2026-05-04 16:48 | 19.09050 | 72.87381 | 49 ft | 0 kts | 89° |
| 2026-05-04 16:48 | 19.09051 | 72.87393 | 49 ft | 4 kts | 89° |
| 2026-05-04 16:49 | 19.09052 | 72.87513 | 49 ft | 12 kts | 89° |
| 2026-05-04 16:49 | 19.09055 | 72.87736 | 48 ft | 18 kts | 89° |
| 2026-05-04 16:50 | 19.09059 | 72.87980 | 48 ft | 7 kts | 89° |
| 2026-05-04 16:50 | 19.09059 | 72.88008 | 48 ft | 1 kts | 94° |
| 2026-05-04 16:51 | 19.09058 | 72.88011 | 48 ft | 0 kts | 94° |
| 2026-05-04 17:00 | 19.09025 | 72.88048 | 48 ft | 6 kts | 168° |
| 2026-05-04 17:00 | 19.09006 | 72.88051 | 48 ft | 2 kts | 174° |
| 2026-05-04 17:01 | 19.08997 | 72.88052 | 47 ft | 0 kts | 177° |
| 2026-05-04 17:01 | 19.08992 | 72.88052 | 47 ft | 3 kts | 177° |
| 2026-05-04 17:02 | 19.08965 | 72.88052 | 47 ft | 3 kts | 179° |
| 2026-05-04 17:02 | 19.08907 | 72.88033 | 46 ft | 5 kts | 224° |
| 2026-05-04 17:03 | 19.08891 | 72.87994 | 47 ft | 7 kts | 259° |
| 2026-05-04 17:03 | 19.08887 | 72.87936 | 47 ft | 9 kts | 269° |
| 2026-05-04 17:03 | 19.08885 | 72.87757 | 48 ft | 30 kts | 270° |
| 2026-05-04 17:04 | 19.08865 | 72.86392 | 49 ft | 145 kts | 268° |
| 2026-05-04 17:04 | 19.08870 | 72.84217 | 883 ft | 172 kts | 269° |
| 2026-05-04 17:05 | 19.08983 | 72.81366 | 2600 ft | 191 kts | 271° |
| 2026-05-04 17:05 | 19.09048 | 72.77939 | 3603 ft | 256 kts | 266° |
| 2026-05-04 17:06 | 19.08849 | 72.74765 | 5098 ft | 260 kts | 266° |
| 2026-05-04 17:06 | 19.08073 | 72.72380 | 6152 ft | 268 kts | 233° |
| 2026-05-04 17:07 | 19.05339 | 72.70767 | 7398 ft | 286 kts | 188° |
| 2026-05-04 17:07 | 19.04010 | 72.70815 | 7880 ft | 293 kts | 171° |
| 2026-05-04 17:07 | 19.01531 | 72.72092 | 8610 ft | 304 kts | 144° |
| 2026-05-04 17:07 | 18.99790 | 72.73370 | 8776 ft | 304 kts | 152° |
| 2026-05-04 17:08 | 18.97859 | 72.74239 | 8820 ft | 301 kts | 167° |
| 2026-05-04 17:08 | 18.93739 | 72.74770 | 8823 ft | 297 kts | 182° |
| 2026-05-04 17:08 | 18.91700 | 72.74764 | 8827 ft | 297 kts | 184° |
| 2026-05-04 17:09 | 18.89636 | 72.74704 | 8831 ft | 296 kts | 185° |
| 2026-05-04 17:09 | 18.87574 | 72.74627 | 8826 ft | 297 kts | 185° |
| 2026-05-04 17:09 | 18.85485 | 72.74550 | 8814 ft | 296 kts | 185° |
| 2026-05-04 17:10 | 18.81363 | 72.74414 | 8835 ft | 297 kts | 185° |
| 2026-05-04 17:10 | 18.75211 | 72.75057 | 9530 ft | 305 kts | 163° |
| 2026-05-04 17:11 | 18.73194 | 72.75776 | 10258 ft | 311 kts | 163° |
| 2026-05-04 17:11 | 18.71065 | 72.76542 | 10495 ft | 334 kts | 163° |
| 2026-05-04 17:11 | 18.66436 | 72.78185 | 11354 ft | 359 kts | 163° |
| 2026-05-04 17:12 | 18.64055 | 72.79019 | 12054 ft | 362 kts | 163° |
| 2026-05-04 17:12 | 18.59212 | 72.80702 | 13396 ft | 370 kts | 162° |
| 2026-05-04 17:13 | 18.51808 | 72.83269 | 15205 ft | 380 kts | 162° |
| 2026-05-04 17:14 | 18.44172 | 72.85920 | 16995 ft | 390 kts | 162° |
| 2026-05-04 17:14 | 18.41579 | 72.86819 | 17581 ft | 394 kts | 162° |
| 2026-05-04 17:14 | 18.36324 | 72.88641 | 18667 ft | 400 kts | 162° |
| 2026-05-04 17:15 | 18.33673 | 72.89560 | 19176 ft | 403 kts | 162° |
| 2026-05-04 17:15 | 18.28304 | 72.91421 | 20157 ft | 409 kts | 162° |
| 2026-05-04 17:16 | 18.22851 | 72.93310 | 21103 ft | 416 kts | 163° |
| 2026-05-04 17:16 | 18.14517 | 72.96193 | 22489 ft | 425 kts | 163° |
| 2026-05-04 17:17 | 18.11696 | 72.97169 | 22937 ft | 428 kts | 163° |
| 2026-05-04 17:17 | 18.03178 | 73.00304 | 24092 ft | 437 kts | 160° |
| 2026-05-04 17:18 | 18.00340 | 73.01474 | 24458 ft | 439 kts | 159° |
| 2026-05-04 17:18 | 17.94627 | 73.03838 | 25150 ft | 443 kts | 160° |
| 2026-05-04 17:19 | 17.88847 | 73.06200 | 25808 ft | 448 kts | 160° |
| 2026-05-04 17:19 | 17.83008 | 73.08566 | 26440 ft | 452 kts | 160° |
| 2026-05-04 17:20 | 17.77106 | 73.10951 | 27021 ft | 457 kts | 160° |
| 2026-05-04 17:20 | 17.71187 | 73.13340 | 27598 ft | 460 kts | 160° |
| 2026-05-04 17:20 | 17.68151 | 73.14565 | 27866 ft | 463 kts | 160° |
| 2026-05-04 17:21 | 17.62122 | 73.16995 | 28408 ft | 466 kts | 160° |
| 2026-05-04 17:21 | 17.56041 | 73.19445 | 28900 ft | 470 kts | 160° |
| 2026-05-04 17:22 | 17.52983 | 73.20676 | 29150 ft | 472 kts | 160° |
| 2026-05-04 17:22 | 17.49916 | 73.21910 | 29382 ft | 473 kts | 160° |
| 2026-05-04 17:23 | 17.40634 | 73.25641 | 30045 ft | 479 kts | 160° |
| 2026-05-04 17:23 | 17.37519 | 73.26893 | 30254 ft | 480 kts | 160° |
| 2026-05-04 17:23 | 17.31255 | 73.29408 | 30657 ft | 483 kts | 160° |
| 2026-05-04 17:24 | 17.28108 | 73.30670 | 30887 ft | 484 kts | 160° |
| 2026-05-04 17:24 | 17.18676 | 73.34452 | 31739 ft | 483 kts | 160° |
| 2026-05-04 17:25 | 17.15555 | 73.35733 | 32031 ft | 482 kts | 157° |
| 2026-05-04 17:25 | 17.09688 | 73.39131 | 32579 ft | 483 kts | 147° |
| 2026-05-04 17:26 | 17.04067 | 73.42963 | 33124 ft | 482 kts | 147° |
| 2026-05-04 17:26 | 16.95622 | 73.48620 | 33915 ft | 479 kts | 148° |
| 2026-05-04 17:27 | 16.89995 | 73.52332 | 34383 ft | 477 kts | 148° |
| 2026-05-04 17:27 | 16.84390 | 73.56020 | 34851 ft | 475 kts | 149° |
| 2026-05-04 17:28 | 16.78634 | 73.59343 | 35283 ft | 472 kts | 153° |
| 2026-05-04 17:29 | 16.69915 | 73.64078 | 35976 ft | 469 kts | 154° |
| 2026-05-04 17:29 | 16.61262 | 73.68794 | 36690 ft | 466 kts | 154° |
| 2026-05-04 17:30 | 16.52661 | 73.73489 | 36915 ft | 463 kts | 154° |
| 2026-05-04 17:31 | 16.46956 | 73.76601 | 36918 ft | 463 kts | 154° |
| 2026-05-04 17:32 | 16.32621 | 73.84247 | 36922 ft | 462 kts | 156° |
| 2026-05-04 17:33 | 16.21073 | 73.90042 | 36924 ft | 462 kts | 155° |
| 2026-05-04 17:34 | 16.09521 | 73.95859 | 36915 ft | 461 kts | 155° |
| 2026-05-04 17:35 | 15.95100 | 74.03112 | 36910 ft | 460 kts | 155° |
| 2026-05-04 17:36 | 15.89343 | 74.06006 | 36915 ft | 460 kts | 155° |
| 2026-05-04 17:36 | 15.83622 | 74.08880 | 36910 ft | 459 kts | 156° |
| 2026-05-04 17:37 | 15.77866 | 74.11770 | 36916 ft | 459 kts | 156° |
| 2026-05-04 17:37 | 15.72109 | 74.14659 | 36914 ft | 459 kts | 156° |
| 2026-05-04 17:38 | 15.66361 | 74.17542 | 36919 ft | 459 kts | 156° |
| 2026-05-04 17:38 | 15.60616 | 74.20422 | 36921 ft | 458 kts | 156° |
| 2026-05-04 17:39 | 15.52042 | 74.24716 | 36918 ft | 458 kts | 156° |
| 2026-05-04 17:39 | 15.46305 | 74.27587 | 36917 ft | 458 kts | 156° |
| 2026-05-04 17:40 | 15.40568 | 74.30457 | 36915 ft | 458 kts | 156° |
| 2026-05-04 17:40 | 15.34829 | 74.33324 | 36919 ft | 458 kts | 156° |
| 2026-05-04 17:41 | 15.29091 | 74.36191 | 36921 ft | 458 kts | 156° |
| 2026-05-04 17:41 | 15.23356 | 74.39054 | 36918 ft | 458 kts | 156° |
| 2026-05-04 17:42 | 15.17612 | 74.41920 | 36919 ft | 458 kts | 156° |
| 2026-05-04 17:42 | 15.11874 | 74.44782 | 36918 ft | 458 kts | 156° |
| 2026-05-04 17:43 | 15.06135 | 74.47655 | 36923 ft | 458 kts | 155° |
| 2026-05-04 17:43 | 15.00401 | 74.50542 | 36924 ft | 459 kts | 155° |
| 2026-05-04 17:44 | 14.94662 | 74.53429 | 36924 ft | 459 kts | 156° |
| 2026-05-04 17:44 | 14.88957 | 74.56296 | 36928 ft | 459 kts | 156° |
| 2026-05-04 17:45 | 14.83174 | 74.59199 | 36930 ft | 459 kts | 156° |
| 2026-05-04 17:45 | 14.77429 | 74.62081 | 36864 ft | 459 kts | 156° |
| 2026-05-04 17:46 | 14.74552 | 74.63524 | 36474 ft | 460 kts | 156° |
| 2026-05-04 17:46 | 14.71695 | 74.64954 | 35750 ft | 464 kts | 156° |
| 2026-05-04 17:46 | 14.68764 | 74.66421 | 34794 ft | 472 kts | 156° |
| 2026-05-04 17:46 | 14.65781 | 74.67912 | 33799 ft | 480 kts | 155° |
| 2026-05-04 17:47 | 14.62774 | 74.69416 | 32964 ft | 480 kts | 155° |
| 2026-05-04 17:47 | 14.59761 | 74.70922 | 32089 ft | 482 kts | 155° |
| 2026-05-04 17:47 | 14.56737 | 74.72434 | 31231 ft | 484 kts | 155° |
| 2026-05-04 17:47 | 14.54693 | 74.73456 | 30744 ft | 483 kts | 155° |
| 2026-05-04 17:48 | 14.51680 | 74.74963 | 30245 ft | 476 kts | 156° |
| 2026-05-04 17:48 | 14.48658 | 74.76308 | 29545 ft | 473 kts | 162° |
| 2026-05-04 17:48 | 14.45532 | 74.77291 | 28995 ft | 465 kts | 168° |
| 2026-05-04 17:48 | 14.42386 | 74.77981 | 28396 ft | 459 kts | 170° |
| 2026-05-04 17:49 | 14.39268 | 74.78617 | 27793 ft | 455 kts | 171° |
| 2026-05-04 17:49 | 14.36177 | 74.79249 | 27192 ft | 451 kts | 170° |
| 2026-05-04 17:49 | 14.33112 | 74.79888 | 26571 ft | 448 kts | 170° |
| 2026-05-04 17:49 | 14.30073 | 74.80536 | 26003 ft | 444 kts | 170° |
| 2026-05-04 17:50 | 14.27063 | 74.81187 | 25385 ft | 442 kts | 169° |
| 2026-05-04 17:50 | 14.24066 | 74.81841 | 24784 ft | 439 kts | 169° |
| 2026-05-04 17:50 | 14.21092 | 74.82493 | 24212 ft | 437 kts | 169° |
| 2026-05-04 17:50 | 14.18126 | 74.83144 | 23633 ft | 434 kts | 169° |
| 2026-05-04 17:51 | 14.15177 | 74.83791 | 23018 ft | 431 kts | 169° |
| 2026-05-04 17:51 | 14.12261 | 74.84430 | 22439 ft | 426 kts | 169° |
| 2026-05-04 17:51 | 14.09377 | 74.85060 | 21857 ft | 421 kts | 169° |
| 2026-05-04 17:51 | 14.06526 | 74.85682 | 21278 ft | 417 kts | 169° |
| 2026-05-04 17:52 | 14.03701 | 74.86297 | 20714 ft | 413 kts | 169° |
| 2026-05-04 17:52 | 14.00900 | 74.86904 | 20138 ft | 409 kts | 168° |
| 2026-05-04 17:52 | 13.98119 | 74.87506 | 19554 ft | 406 kts | 168° |
| 2026-05-04 17:52 | 13.95365 | 74.88102 | 18974 ft | 404 kts | 168° |
| 2026-05-04 17:53 | 13.92630 | 74.88694 | 18398 ft | 401 kts | 168° |
| 2026-05-04 17:53 | 13.89914 | 74.89283 | 17794 ft | 398 kts | 167° |
| 2026-05-04 17:53 | 13.87226 | 74.89866 | 17276 ft | 392 kts | 167° |
| 2026-05-04 17:53 | 13.84574 | 74.90443 | 16733 ft | 387 kts | 167° |
| 2026-05-04 17:54 | 13.81991 | 74.91007 | 16185 ft | 383 kts | 167° |
| 2026-05-04 17:54 | 13.79358 | 74.91583 | 15643 ft | 379 kts | 167° |
| 2026-05-04 17:54 | 13.76815 | 74.92139 | 15111 ft | 377 kts | 167° |
| 2026-05-04 17:54 | 13.74256 | 74.92700 | 14552 ft | 375 kts | 167° |
| 2026-05-04 17:55 | 13.71713 | 74.93256 | 14018 ft | 373 kts | 167° |
| 2026-05-04 17:55 | 13.69176 | 74.93811 | 13487 ft | 371 kts | 167° |
| 2026-05-04 17:55 | 13.66660 | 74.94361 | 12958 ft | 368 kts | 167° |
| 2026-05-04 17:55 | 13.64172 | 74.94905 | 12440 ft | 364 kts | 167° |
| 2026-05-04 17:56 | 13.61700 | 74.95445 | 11926 ft | 361 kts | 167° |
| 2026-05-04 17:56 | 13.59253 | 74.95980 | 11422 ft | 358 kts | 168° |
| 2026-05-04 17:56 | 13.56826 | 74.96511 | 10907 ft | 355 kts | 168° |
| 2026-05-04 17:56 | 13.54417 | 74.97037 | 10373 ft | 354 kts | 168° |
| 2026-05-04 17:57 | 13.52046 | 74.97553 | 10170 ft | 341 kts | 168° |
| 2026-05-04 17:57 | 13.49772 | 74.98048 | 10044 ft | 327 kts | 168° |
| 2026-05-04 17:57 | 13.47593 | 74.98521 | 9920 ft | 314 kts | 168° |
| 2026-05-04 17:57 | 13.45500 | 74.98975 | 9823 ft | 301 kts | 168° |
| 2026-05-04 17:58 | 13.43497 | 74.99409 | 9716 ft | 288 kts | 168° |
| 2026-05-04 17:58 | 13.41577 | 74.99824 | 9605 ft | 276 kts | 168° |
| 2026-05-04 17:58 | 13.39739 | 75.00221 | 9491 ft | 264 kts | 168° |
| 2026-05-04 17:58 | 13.37975 | 75.00602 | 9374 ft | 253 kts | 168° |
| 2026-05-04 17:59 | 13.36268 | 75.00971 | 9267 ft | 242 kts | 168° |
| 2026-05-04 17:59 | 13.34648 | 75.01320 | 9085 ft | 235 kts | 168° |
| 2026-05-04 17:59 | 13.31473 | 75.02003 | 8458 ft | 235 kts | 168° |
| 2026-05-04 18:00 | 13.29875 | 75.02347 | 8161 ft | 234 kts | 168° |
| 2026-05-04 18:00 | 13.28283 | 75.02690 | 7860 ft | 234 kts | 168° |
| 2026-05-04 18:00 | 13.26692 | 75.03033 | 7568 ft | 233 kts | 168° |
| 2026-05-04 18:00 | 13.25087 | 75.03378 | 7280 ft | 232 kts | 168° |
| 2026-05-04 18:01 | 13.23527 | 75.03714 | 7002 ft | 232 kts | 168° |
| 2026-05-04 18:01 | 13.21947 | 75.04054 | 6721 ft | 231 kts | 168° |
| 2026-05-04 18:01 | 13.20375 | 75.04393 | 6445 ft | 231 kts | 168° |
| 2026-05-04 18:02 | 13.17235 | 75.05070 | 5880 ft | 229 kts | 168° |
| 2026-05-04 18:02 | 13.15681 | 75.05408 | 5628 ft | 228 kts | 168° |
| 2026-05-04 18:02 | 13.14136 | 75.05745 | 5379 ft | 226 kts | 168° |
| 2026-05-04 18:02 | 13.12603 | 75.06078 | 5129 ft | 225 kts | 169° |
| 2026-05-04 18:03 | 13.11075 | 75.06410 | 4884 ft | 223 kts | 169° |
| 2026-05-04 18:03 | 13.09556 | 75.06739 | 4620 ft | 224 kts | 169° |
| 2026-05-04 18:03 | 13.07999 | 75.07007 | 4171 ft | 230 kts | 182° |
| 2026-05-04 18:03 | 13.06453 | 75.06570 | 3667 ft | 236 kts | 214° |
| 2026-05-04 18:04 | 13.05300 | 75.05358 | 3126 ft | 243 kts | 238° |
| 2026-05-04 18:04 | 13.04420 | 75.03843 | 2604 ft | 251 kts | 242° |
| 2026-05-04 18:04 | 13.02796 | 75.00820 | 2322 ft | 225 kts | 242° |
| 2026-05-04 18:05 | 13.02034 | 74.99463 | 2332 ft | 222 kts | 241° |
| 2026-05-04 18:05 | 13.01252 | 74.98115 | 2323 ft | 212 kts | 239° |
| 2026-05-04 18:05 | 13.00494 | 74.96906 | 2321 ft | 194 kts | 238° |
| 2026-05-04 18:05 | 12.99753 | 74.95742 | 2325 ft | 198 kts | 239° |
| 2026-05-04 18:06 | 12.98419 | 74.93577 | 2325 ft | 148 kts | 239° |
| 2026-05-04 18:06 | 12.97898 | 74.92700 | 1910 ft | 149 kts | 241° |
| 2026-05-04 18:06 | 12.97372 | 74.91735 | 1252 ft | 162 kts | 243° |
| 2026-05-04 18:07 | 12.96809 | 74.90813 | 1014 ft | 148 kts | 234° |
| 2026-05-04 18:07 | 12.96216 | 74.89928 | 657 ft | 143 kts | 238° |
| 2026-05-04 18:07 | 12.95713 | 74.89068 | 507 ft | 133 kts | 236° |
| 2026-05-04 18:07 | 12.95122 | 74.88199 | 819 ft | 167 kts | 234° |
| 2026-05-04 18:08 | 12.94352 | 74.87131 | 1286 ft | 199 kts | 235° |
| 2026-05-04 18:08 | 12.93574 | 74.85809 | 1945 ft | 224 kts | 242° |
| 2026-05-04 18:08 | 12.92858 | 74.84402 | 2305 ft | 221 kts | 244° |
| 2026-05-04 18:08 | 12.92181 | 74.82993 | 2352 ft | 220 kts | 252° |
| 2026-05-04 18:09 | 12.90763 | 74.80281 | 3135 ft | 230 kts | 213° |
| 2026-05-04 18:09 | 12.87915 | 74.78817 | 3420 ft | 229 kts | 207° |
| 2026-05-04 18:10 | 12.86477 | 74.78125 | 3422 ft | 226 kts | 204° |
| 2026-05-04 18:10 | 12.84975 | 74.77902 | 3421 ft | 219 kts | 171° |
| 2026-05-04 18:10 | 12.83620 | 74.78562 | 3420 ft | 218 kts | 135° |
| 2026-05-04 18:10 | 12.82860 | 74.79883 | 3423 ft | 218 kts | 99° |
| 2026-05-04 18:11 | 12.82785 | 74.81427 | 3416 ft | 217 kts | 88° |
| 2026-05-04 18:11 | 12.82828 | 74.82974 | 3424 ft | 217 kts | 87° |
| 2026-05-04 18:11 | 12.82879 | 74.84515 | 3421 ft | 216 kts | 87° |
| 2026-05-04 18:11 | 12.82929 | 74.86054 | 3420 ft | 216 kts | 87° |
| 2026-05-04 18:12 | 12.82986 | 74.87593 | 3422 ft | 216 kts | 85° |
| 2026-05-04 18:12 | 12.83158 | 74.89127 | 3423 ft | 217 kts | 77° |
| 2026-05-04 18:12 | 12.83709 | 74.90518 | 3430 ft | 214 kts | 54° |
| 2026-05-04 18:12 | 12.84606 | 74.91758 | 3427 ft | 213 kts | 54° |
| 2026-05-04 18:13 | 12.85390 | 74.93046 | 3425 ft | 214 kts | 58° |
| 2026-05-04 18:13 | 12.86148 | 74.94358 | 3424 ft | 214 kts | 58° |
| 2026-05-04 18:13 | 12.87652 | 74.96968 | 3382 ft | 212 kts | 59° |
| 2026-05-04 18:14 | 12.88414 | 74.98286 | 3164 ft | 212 kts | 58° |
| 2026-05-04 18:14 | 12.89197 | 74.99543 | 2875 ft | 212 kts | 47° |
| 2026-05-04 18:14 | 12.90388 | 75.00371 | 2594 ft | 207 kts | 13° |
| 2026-05-04 18:15 | 12.93126 | 74.99937 | 2190 ft | 198 kts | 342° |
| 2026-05-04 18:15 | 12.95890 | 74.99191 | 2950 ft | 222 kts | 340° |
| 2026-05-04 18:15 | 12.97210 | 74.98406 | 2600 ft | 225 kts | 328° |
| 2026-05-04 18:16 | 12.98701 | 74.97970 | 2342 ft | 224 kts | 2° |
| 2026-05-04 18:16 | 13.00169 | 74.98379 | 2351 ft | 221 kts | 20° |
| 2026-05-04 18:16 | 13.01577 | 74.98973 | 2559 ft | 212 kts | 18° |
| 2026-05-04 18:17 | 13.04482 | 74.99135 | 3013 ft | 211 kts | 356° |
| 2026-05-04 18:17 | 13.05958 | 74.99091 | 3062 ft | 213 kts | 3° |
| 2026-05-04 18:17 | 13.08222 | 75.00799 | 2611 ft | 217 kts | 67° |
| 2026-05-04 18:18 | 13.08736 | 75.02247 | 2422 ft | 213 kts | 70° |
| 2026-05-04 18:18 | 13.09215 | 75.03686 | 2422 ft | 214 kts | 70° |
| 2026-05-04 18:18 | 13.09415 | 75.05182 | 2424 ft | 214 kts | 100° |
| 2026-05-04 18:18 | 13.08784 | 75.06549 | 2426 ft | 215 kts | 133° |
| 2026-05-04 18:19 | 13.06204 | 75.07715 | 2426 ft | 210 kts | 194° |
| 2026-05-04 18:19 | 13.04950 | 75.07031 | 2424 ft | 204 kts | 231° |
| 2026-05-04 18:19 | 13.04175 | 75.05814 | 2416 ft | 203 kts | 245° |
| 2026-05-04 18:20 | 13.03652 | 75.04480 | 2415 ft | 200 kts | 252° |
| 2026-05-04 18:20 | 13.03169 | 75.03146 | 2138 ft | 205 kts | 247° |
| 2026-05-04 18:20 | 13.02462 | 75.01791 | 2117 ft | 219 kts | 241° |
| 2026-05-04 18:20 | 13.01650 | 75.00478 | 2130 ft | 220 kts | 230° |
| 2026-05-04 18:21 | 13.00380 | 74.99622 | 2129 ft | 224 kts | 197° |
| 2026-05-04 18:21 | 12.98822 | 74.99621 | 2129 ft | 229 kts | 164° |
| 2026-05-04 18:21 | 12.97304 | 75.00183 | 2129 ft | 231 kts | 156° |
| 2026-05-04 18:21 | 12.96050 | 75.01159 | 2137 ft | 229 kts | 133° |
| 2026-05-04 18:22 | 12.95054 | 75.02443 | 2116 ft | 231 kts | 115° |
| 2026-05-04 18:22 | 12.94468 | 75.03981 | 2122 ft | 231 kts | 108° |
| 2026-05-04 18:22 | 12.93956 | 75.05538 | 2123 ft | 231 kts | 108° |
| 2026-05-04 18:22 | 12.93448 | 75.07097 | 2117 ft | 231 kts | 108° |
| 2026-05-04 18:23 | 12.92941 | 75.08662 | 2119 ft | 232 kts | 108° |
| 2026-05-04 18:23 | 12.92437 | 75.10225 | 2117 ft | 230 kts | 108° |
| 2026-05-04 18:23 | 12.91936 | 75.11782 | 2121 ft | 231 kts | 108° |
| 2026-05-04 18:23 | 12.91437 | 75.13350 | 2118 ft | 231 kts | 109° |
| 2026-05-04 18:24 | 12.90983 | 75.14923 | 2110 ft | 230 kts | 98° |
| 2026-05-04 18:24 | 12.91098 | 75.16546 | 2126 ft | 230 kts | 77° |
| 2026-05-04 18:24 | 12.91629 | 75.18071 | 2123 ft | 227 kts | 54° |
| 2026-05-04 18:24 | 12.92791 | 75.19119 | 2122 ft | 224 kts | 22° |
| 2026-05-04 18:25 | 12.94293 | 75.19368 | 2123 ft | 219 kts | 349° |
| 2026-05-04 18:25 | 12.95649 | 75.18750 | 2116 ft | 215 kts | 316° |
| 2026-05-04 18:25 | 12.96423 | 75.17487 | 2127 ft | 215 kts | 283° |
| 2026-05-04 18:25 | 12.96374 | 75.15978 | 2119 ft | 215 kts | 250° |
| 2026-05-04 18:26 | 12.95488 | 75.14751 | 2122 ft | 220 kts | 216° |
| 2026-05-04 18:26 | 12.94054 | 75.14227 | 2125 ft | 224 kts | 182° |
| 2026-05-04 18:26 | 12.92543 | 75.14607 | 2118 ft | 228 kts | 149° |
| 2026-05-04 18:26 | 12.91474 | 75.15777 | 2117 ft | 228 kts | 114° |
| 2026-05-04 18:27 | 12.91094 | 75.17355 | 2115 ft | 231 kts | 90° |
| 2026-05-04 18:27 | 12.91444 | 75.18922 | 2110 ft | 226 kts | 56° |
| 2026-05-04 18:27 | 12.92556 | 75.20014 | 2122 ft | 223 kts | 22° |
| 2026-05-04 18:27 | 12.94047 | 75.20278 | 2122 ft | 218 kts | 348° |
| 2026-05-04 18:28 | 12.94980 | 75.19946 | 2121 ft | 214 kts | 325° |
| 2026-05-04 18:28 | 12.96097 | 75.18328 | 2124 ft | 215 kts | 279° |
| 2026-05-04 18:28 | 12.96091 | 75.17316 | 2122 ft | 216 kts | 257° |
| 2026-05-04 18:28 | 12.94944 | 75.15682 | 2116 ft | 220 kts | 210° |
| 2026-05-04 18:29 | 12.93985 | 75.15337 | 2115 ft | 224 kts | 187° |
| 2026-05-04 18:29 | 12.92456 | 75.15588 | 2124 ft | 228 kts | 153° |
| 2026-05-04 18:29 | 12.91299 | 75.16683 | 2115 ft | 231 kts | 118° |
| 2026-05-04 18:29 | 12.90915 | 75.18253 | 2114 ft | 229 kts | 84° |
| 2026-05-04 18:30 | 12.92227 | 75.21162 | 2126 ft | 227 kts | 53° |
| 2026-05-04 18:30 | 12.93121 | 75.22488 | 2121 ft | 226 kts | 53° |
| 2026-05-04 18:30 | 12.94019 | 75.23808 | 2113 ft | 225 kts | 53° |
| 2026-05-04 18:31 | 12.94928 | 75.25106 | 2125 ft | 224 kts | 47° |
| 2026-05-04 18:31 | 12.96206 | 75.25970 | 2124 ft | 222 kts | 13° |
| 2026-05-04 18:31 | 12.97703 | 75.25966 | 2120 ft | 211 kts | 339° |
| 2026-05-04 18:31 | 12.98918 | 75.25244 | 2130 ft | 201 kts | 323° |
| 2026-05-04 18:32 | 13.00035 | 75.24398 | 2124 ft | 192 kts | 322° |
| 2026-05-04 18:32 | 13.01069 | 75.23601 | 2123 ft | 185 kts | 322° |
| 2026-05-04 18:32 | 13.02095 | 75.22803 | 2123 ft | 185 kts | 322° |
| 2026-05-04 18:32 | 13.03132 | 75.21990 | 2276 ft | 190 kts | 322° |
| 2026-05-04 18:33 | 13.04171 | 75.21172 | 2409 ft | 187 kts | 322° |
| 2026-05-04 18:33 | 13.05201 | 75.20361 | 2427 ft | 187 kts | 322° |
| 2026-05-04 18:33 | 13.06256 | 75.19528 | 2433 ft | 202 kts | 322° |
| 2026-05-04 18:33 | 13.07385 | 75.18631 | 2424 ft | 206 kts | 322° |
| 2026-05-04 18:34 | 13.08523 | 75.17725 | 2430 ft | 207 kts | 323° |
| 2026-05-04 18:34 | 13.09656 | 75.16808 | 2427 ft | 207 kts | 318° |
| 2026-05-04 18:34 | 13.10406 | 75.15581 | 2427 ft | 206 kts | 286° |
| 2026-05-04 18:34 | 13.10361 | 75.14127 | 2419 ft | 208 kts | 252° |
| 2026-05-04 18:35 | 13.09769 | 75.12765 | 2414 ft | 208 kts | 246° |
| 2026-05-04 18:35 | 13.09094 | 75.11452 | 2410 ft | 209 kts | 243° |
| 2026-05-04 18:35 | 13.08370 | 75.10186 | 2413 ft | 208 kts | 241° |
| 2026-05-04 18:35 | 13.07613 | 75.08919 | 2408 ft | 207 kts | 240° |
| 2026-05-04 18:36 | 13.06844 | 75.07640 | 2404 ft | 208 kts | 241° |
| 2026-05-04 18:36 | 13.06097 | 75.06394 | 2410 ft | 208 kts | 241° |
| 2026-05-04 18:36 | 13.05310 | 75.05078 | 2403 ft | 219 kts | 241° |
| 2026-05-04 18:36 | 13.04510 | 75.03744 | 2401 ft | 218 kts | 240° |
| 2026-05-04 18:37 | 13.03720 | 75.02427 | 2400 ft | 218 kts | 240° |
| 2026-05-04 18:37 | 13.02923 | 75.01099 | 2401 ft | 218 kts | 241° |
| 2026-05-04 18:37 | 13.02130 | 74.99777 | 2401 ft | 217 kts | 241° |
| 2026-05-04 18:37 | 13.01334 | 74.98450 | 2266 ft | 219 kts | 241° |
| 2026-05-04 18:38 | 13.00538 | 74.97126 | 2003 ft | 213 kts | 241° |
| 2026-05-04 18:38 | 12.99801 | 74.95902 | 1697 ft | 201 kts | 241° |
| 2026-05-04 18:38 | 12.99073 | 74.94691 | 1433 ft | 191 kts | 241° |
| 2026-05-04 18:38 | 12.98401 | 74.93572 | 1214 ft | 179 kts | 242° |
| 2026-05-04 18:39 | 12.97744 | 74.92473 | 986 ft | 180 kts | 240° |
| 2026-05-04 18:39 | 12.97086 | 74.91376 | 751 ft | 180 kts | 240° |
| 2026-05-04 18:39 | 12.96431 | 74.90285 | 513 ft | 177 kts | 240° |
| 2026-05-04 18:39 | 12.95833 | 74.89290 | 322 ft | 151 kts | 240° |
| 2026-05-04 18:40 | 12.95413 | 74.88577 | 317 ft | 85 kts | 238° |
| 2026-05-04 18:40 | 12.95227 | 74.88284 | 318 ft | 0 kts | 237° |
| 2026-05-04 18:40 | 12.95205 | 74.88249 | 318 ft | 12 kts | 237° |
| 2026-05-04 18:40 | 12.95184 | 74.88216 | 319 ft | 2 kts | 238° |
| 2026-05-04 18:41 | 12.95167 | 74.88187 | 318 ft | 9 kts | 238° |
| 2026-05-04 18:41 | 12.95130 | 74.88112 | 318 ft | 13 kts | 251° |
| 2026-05-04 18:41 | 12.95155 | 74.88056 | 318 ft | 0 kts | 326° |
| 2026-05-04 18:42 | 12.95202 | 74.88026 | 318 ft | 15 kts | 327° |
| 2026-05-04 18:42 | 12.95273 | 74.87973 | 318 ft | 10 kts | 300° |
| 2026-05-04 18:42 | 12.95254 | 74.87904 | 317 ft | 10 kts | 240° |
| 2026-05-04 18:43 | 12.95220 | 74.87854 | 318 ft | 7 kts | 214° |
| 2026-05-04 18:43 | 12.95184 | 74.87830 | 316 ft | 6 kts | 212° |
| 2026-05-04 18:43 | 12.95140 | 74.87815 | 318 ft | 9 kts | 210° |
| 2026-05-04 18:43 | 12.95095 | 74.87762 | 318 ft | 11 kts | 235° |
| 2026-05-04 18:44 | 12.95058 | 74.87703 | 317 ft | 0 kts | 239° |
| 2026-05-04 18:44 | 12.95053 | 74.87693 | 317 ft | 4 kts | 239° |
| 2026-05-04 18:44 | 12.95030 | 74.87624 | 317 ft | 11 kts | 265° |
| 2026-05-04 18:44 | 12.95026 | 74.87540 | 318 ft | 10 kts | 256° |
| 2026-05-04 18:45 | 12.94980 | 74.87452 | 318 ft | 17 kts | 234° |
| 2026-05-04 18:45 | 12.94926 | 74.87374 | 318 ft | 12 kts | 236° |
| 2026-05-04 18:45 | 12.94882 | 74.87296 | 318 ft | 13 kts | 241° |
| 2026-05-04 18:45 | 12.94855 | 74.87230 | 318 ft | 9 kts | 265° |
| 2026-05-04 18:46 | 12.94874 | 74.87160 | 316 ft | 12 kts | 304° |
| 2026-05-04 18:46 | 12.94900 | 74.87149 | 318 ft | 2 kts | 11° |
| 2026-05-04 18:46 | 12.94925 | 74.87154 | 318 ft | 6 kts | 12° |
| 2026-05-04 18:46 | 12.94960 | 74.87145 | 318 ft | 5 kts | 293° |
| 2026-05-04 18:47 | 12.94962 | 74.87137 | 318 ft | 0 kts | 287° |